sensor_id;sensor_type;location;lat;lon;timestamp;P1;durP1;ratioP1;P2;durP2;ratioP2
75550;SDS011;64135;53.130;17.972;2022-11-02T00:00:25;35.20;;;20.70;;
75550;SDS011;64135;53.130;17.972;2022-11-02T00:03:12;38.30;;;20.60;;
75550;SDS011;64135;53.130;17.972;2022-11-02T00:05:39;30.00;;;18.20;;
75550;SDS011;64135;53.130;17.972;2022-11-02T00:08:06;30.30;;;17.80;;
75550;SDS011;64135;53.130;17.972;2022-11-02T00:10:32;33.70;;;19.70;;
75550;SDS011;64135;53.130;17.972;2022-11-02T00:12:59;33.30;;;19.80;;
75550;SDS011;64135;53.130;17.972;2022-11-02T00:15:26;36.20;;;20.80;;
75550;SDS011;64135;53.130;17.972;2022-11-02T00:17:55;35.60;;;19.10;;
75550;SDS011;64135;53.130;17.972;2022-11-02T00:20:24;33.00;;;19.10;;
75550;SDS011;64135;53.130;17.972;2022-11-02T00:22:52;36.20;;;19.30;;
75550;SDS011;64135;53.130;17.972;2022-11-02T00:25:22;32.60;;;18.90;;
75550;SDS011;64135;53.130;17.972;2022-11-02T00:27:49;30.70;;;18.80;;
75550;SDS011;64135;53.130;17.972;2022-11-02T00:30:16;29.40;;;16.30;;
75550;SDS011;64135;53.130;17.972;2022-11-02T00:32:44;29.90;;;17.10;;
75550;SDS011;64135;53.130;17.972;2022-11-02T00:35:10;32.40;;;18.40;;
75550;SDS011;64135;53.130;17.972;2022-11-02T00:37:37;34.30;;;19.80;;
75550;SDS011;64135;53.130;17.972;2022-11-02T00:40:04;29.00;;;17.90;;
75550;SDS011;64135;53.130;17.972;2022-11-02T00:42:32;33.10;;;18.80;;
75550;SDS011;64135;53.130;17.972;2022-11-02T00:44:58;30.30;;;18.40;;
75550;SDS011;64135;53.130;17.972;2022-11-02T00:47:25;31.10;;;18.00;;
75550;SDS011;64135;53.130;17.972;2022-11-02T00:49:52;28.50;;;16.40;;
75550;SDS011;64135;53.130;17.972;2022-11-02T00:52:19;30.70;;;16.20;;
75550;SDS011;64135;53.130;17.972;2022-11-02T00:54:48;30.50;;;18.10;;
75550;SDS011;64135;53.130;17.972;2022-11-02T00:57:15;33.90;;;18.60;;
75550;SDS011;64135;53.130;17.972;2022-11-02T00:59:42;32.20;;;18.10;;
75550;SDS011;64135;53.130;17.972;2022-11-02T01:02:09;29.50;;;17.60;;
75550;SDS011;64135;53.130;17.972;2022-11-02T01:04:36;31.10;;;18.20;;
75550;SDS011;64135;53.130;17.972;2022-11-02T01:07:03;28.40;;;16.80;;
75550;SDS011;64135;53.130;17.972;2022-11-02T01:09:29;26.50;;;17.00;;
75550;SDS011;64135;53.130;17.972;2022-11-02T01:11:56;31.60;;;16.90;;
75550;SDS011;64135;53.130;17.972;2022-11-02T01:14:23;29.10;;;16.10;;
75550;SDS011;64135;53.130;17.972;2022-11-02T01:16:49;31.90;;;18.60;;
75550;SDS011;64135;53.130;17.972;2022-11-02T01:19:18;31.40;;;17.40;;
75550;SDS011;64135;53.130;17.972;2022-11-02T01:21:44;33.80;;;18.20;;
75550;SDS011;64135;53.130;17.972;2022-11-02T01:24:11;28.60;;;17.10;;
75550;SDS011;64135;53.130;17.972;2022-11-02T01:26:38;29.90;;;17.50;;
75550;SDS011;64135;53.130;17.972;2022-11-02T01:29:04;26.30;;;16.30;;
75550;SDS011;64135;53.130;17.972;2022-11-02T01:31:31;30.60;;;17.70;;
75550;SDS011;64135;53.130;17.972;2022-11-02T01:33:58;26.40;;;16.40;;
75550;SDS011;64135;53.130;17.972;2022-11-02T01:36:24;29.70;;;18.20;;
75550;SDS011;64135;53.130;17.972;2022-11-02T01:38:51;36.50;;;20.10;;
75550;SDS011;64135;53.130;17.972;2022-11-02T01:41:17;29.80;;;17.30;;
75550;SDS011;64135;53.130;17.972;2022-11-02T01:43:45;28.90;;;17.80;;
75550;SDS011;64135;53.130;17.972;2022-11-02T01:48:51;27.90;;;17.60;;
75550;SDS011;64135;53.130;17.972;2022-11-02T01:51:28;28.90;;;17.10;;
75550;SDS011;64135;53.130;17.972;2022-11-02T01:53:58;32.70;;;18.00;;
75550;SDS011;64135;53.130;17.972;2022-11-02T01:56:29;28.60;;;16.90;;
75550;SDS011;64135;53.130;17.972;2022-11-02T01:58:57;31.60;;;18.50;;
75550;SDS011;64135;53.130;17.972;2022-11-02T02:01:33;27.60;;;16.80;;
75550;SDS011;64135;53.130;17.972;2022-11-02T02:03:59;32.50;;;18.60;;
75550;SDS011;64135;53.130;17.972;2022-11-02T02:06:27;27.10;;;16.60;;
75550;SDS011;64135;53.130;17.972;2022-11-02T02:08:55;25.10;;;16.30;;
75550;SDS011;64135;53.130;17.972;2022-11-02T02:14:19;26.80;;;15.60;;
75550;SDS011;64135;53.130;17.972;2022-11-02T02:30:25;26.10;;;16.40;;
75550;SDS011;64135;53.130;17.972;2022-11-02T02:32:55;25.20;;;15.60;;
75550;SDS011;64135;53.130;17.972;2022-11-02T02:38:33;28.00;;;15.80;;
75550;SDS011;64135;53.130;17.972;2022-11-02T02:41:05;28.80;;;16.60;;
75550;SDS011;64135;53.130;17.972;2022-11-02T02:43:39;29.10;;;17.20;;
75550;SDS011;64135;53.130;17.972;2022-11-02T02:46:52;23.10;;;11.90;;
75550;SDS011;64135;53.130;17.972;2022-11-02T02:48:59;29.20;;;17.20;;
75550;SDS011;64135;53.130;17.972;2022-11-02T02:51:27;25.20;;;14.90;;
75550;SDS011;64135;53.130;17.972;2022-11-02T02:54:06;26.20;;;15.30;;
75550;SDS011;64135;53.130;17.972;2022-11-02T02:56:37;27.80;;;16.20;;
75550;SDS011;64135;53.130;17.972;2022-11-02T02:59:07;24.20;;;15.40;;
75550;SDS011;64135;53.130;17.972;2022-11-02T03:01:39;25.90;;;15.80;;
75550;SDS011;64135;53.130;17.972;2022-11-02T03:04:11;26.30;;;16.40;;
75550;SDS011;64135;53.130;17.972;2022-11-02T03:06:38;30.50;;;17.30;;
75550;SDS011;64135;53.130;17.972;2022-11-02T03:12:04;25.10;;;15.90;;
75550;SDS011;64135;53.130;17.972;2022-11-02T03:17:27;20.20;;;13.10;;
75550;SDS011;64135;53.130;17.972;2022-11-02T03:20:10;25.50;;;13.90;;
75550;SDS011;64135;53.130;17.972;2022-11-02T03:23:05;24.40;;;14.90;;
75550;SDS011;64135;53.130;17.972;2022-11-02T03:25:40;25.90;;;15.30;;
75550;SDS011;64135;53.130;17.972;2022-11-02T03:31:32;26.50;;;15.50;;
75550;SDS011;64135;53.130;17.972;2022-11-02T03:34:23;26.60;;;14.90;;
75550;SDS011;64135;53.130;17.972;2022-11-02T03:39:41;23.60;;;14.60;;
75550;SDS011;64135;53.130;17.972;2022-11-02T03:42:12;30.00;;;16.90;;
75550;SDS011;64135;53.130;17.972;2022-11-02T03:44:43;31.10;;;16.40;;
75550;SDS011;64135;53.130;17.972;2022-11-02T03:47:12;35.50;;;18.20;;
75550;SDS011;64135;53.130;17.972;2022-11-02T03:49:42;34.30;;;19.40;;
75550;SDS011;64135;53.130;17.972;2022-11-02T03:52:11;36.20;;;18.20;;
75550;SDS011;64135;53.130;17.972;2022-11-02T03:55:03;36.00;;;19.90;;
75550;SDS011;64135;53.130;17.972;2022-11-02T03:57:51;30.40;;;16.80;;
75550;SDS011;64135;53.130;17.972;2022-11-02T04:00:23;30.70;;;16.60;;
75550;SDS011;64135;53.130;17.972;2022-11-02T04:02:55;30.90;;;16.70;;
75550;SDS011;64135;53.130;17.972;2022-11-02T04:05:27;27.50;;;14.30;;
75550;SDS011;64135;53.130;17.972;2022-11-02T04:07:55;33.50;;;17.80;;
75550;SDS011;64135;53.130;17.972;2022-11-02T04:10:42;27.00;;;15.30;;
75550;SDS011;64135;53.130;17.972;2022-11-02T04:13:28;29.30;;;15.90;;
75550;SDS011;64135;53.130;17.972;2022-11-02T04:16:13;30.90;;;16.30;;
75550;SDS011;64135;53.130;17.972;2022-11-02T04:18:41;27.50;;;15.30;;
75550;SDS011;64135;53.130;17.972;2022-11-02T04:21:28;29.90;;;15.00;;
75550;SDS011;64135;53.130;17.972;2022-11-02T04:23:56;33.90;;;18.70;;
75550;SDS011;64135;53.130;17.972;2022-11-02T04:26:42;31.40;;;17.40;;
75550;SDS011;64135;53.130;17.972;2022-11-02T04:29:09;26.70;;;15.20;;
75550;SDS011;64135;53.130;17.972;2022-11-02T04:31:36;31.00;;;17.30;;
75550;SDS011;64135;53.130;17.972;2022-11-02T04:34:02;26.80;;;14.80;;
75550;SDS011;64135;53.130;17.972;2022-11-02T04:36:29;21.90;;;12.60;;
75550;SDS011;64135;53.130;17.972;2022-11-02T04:38:57;27.70;;;15.00;;
75550;SDS011;64135;53.130;17.972;2022-11-02T04:41:28;28.00;;;14.90;;
75550;SDS011;64135;53.130;17.972;2022-11-02T04:44:27;24.60;;;14.10;;
75550;SDS011;64135;53.130;17.972;2022-11-02T04:47:14;24.10;;;13.20;;
75550;SDS011;64135;53.130;17.972;2022-11-02T04:49:41;25.00;;;14.90;;
75550;SDS011;64135;53.130;17.972;2022-11-02T04:52:10;23.90;;;13.30;;
75550;SDS011;64135;53.130;17.972;2022-11-02T04:54:38;24.00;;;13.30;;
75550;SDS011;64135;53.130;17.972;2022-11-02T04:57:05;27.20;;;15.50;;
75550;SDS011;64135;53.130;17.972;2022-11-02T04:59:32;21.80;;;12.40;;
75550;SDS011;64135;53.130;17.972;2022-11-02T05:01:59;21.30;;;12.60;;
75550;SDS011;64135;53.130;17.972;2022-11-02T05:04:25;21.10;;;11.60;;
75550;SDS011;64135;53.130;17.972;2022-11-02T05:06:52;25.90;;;13.80;;
75550;SDS011;64135;53.130;17.972;2022-11-02T05:09:19;20.60;;;11.90;;
75550;SDS011;64135;53.130;17.972;2022-11-02T05:11:47;16.70;;;10.10;;
75550;SDS011;64135;53.130;17.972;2022-11-02T05:14:13;22.40;;;12.40;;
75550;SDS011;64135;53.130;17.972;2022-11-02T05:16:40;22.90;;;12.40;;
75550;SDS011;64135;53.130;17.972;2022-11-02T05:19:08;25.10;;;13.60;;
75550;SDS011;64135;53.130;17.972;2022-11-02T05:21:35;18.20;;;9.30;;
75550;SDS011;64135;53.130;17.972;2022-11-02T05:24:02;21.40;;;11.50;;
75550;SDS011;64135;53.130;17.972;2022-11-02T05:26:30;15.90;;;9.40;;
75550;SDS011;64135;53.130;17.972;2022-11-02T05:28:56;16.00;;;9.40;;
75550;SDS011;64135;53.130;17.972;2022-11-02T05:31:23;13.50;;;8.80;;
75550;SDS011;64135;53.130;17.972;2022-11-02T05:33:50;12.20;;;7.70;;
75550;SDS011;64135;53.130;17.972;2022-11-02T05:36:19;13.00;;;7.50;;
75550;SDS011;64135;53.130;17.972;2022-11-02T05:38:51;15.60;;;10.20;;
75550;SDS011;64135;53.130;17.972;2022-11-02T05:41:19;14.70;;;9.50;;
75550;SDS011;64135;53.130;17.972;2022-11-02T05:43:47;15.60;;;9.90;;
75550;SDS011;64135;53.130;17.972;2022-11-02T05:46:14;17.30;;;10.90;;
75550;SDS011;64135;53.130;17.972;2022-11-02T05:48:41;17.00;;;10.10;;
75550;SDS011;64135;53.130;17.972;2022-11-02T05:51:08;14.30;;;9.00;;
75550;SDS011;64135;53.130;17.972;2022-11-02T05:53:35;18.30;;;10.50;;
75550;SDS011;64135;53.130;17.972;2022-11-02T05:56:04;13.60;;;8.20;;
75550;SDS011;64135;53.130;17.972;2022-11-02T05:58:32;17.60;;;10.20;;
75550;SDS011;64135;53.130;17.972;2022-11-02T06:01:00;10.90;;;7.40;;
75550;SDS011;64135;53.130;17.972;2022-11-02T06:03:27;12.80;;;9.00;;
75550;SDS011;64135;53.130;17.972;2022-11-02T06:05:55;11.20;;;7.40;;
75550;SDS011;64135;53.130;17.972;2022-11-02T06:08:23;15.70;;;9.10;;
75550;SDS011;64135;53.130;17.972;2022-11-02T06:10:49;14.40;;;8.60;;
75550;SDS011;64135;53.130;17.972;2022-11-02T06:13:16;15.20;;;9.60;;
75550;SDS011;64135;53.130;17.972;2022-11-02T06:15:42;14.90;;;9.10;;
75550;SDS011;64135;53.130;17.972;2022-11-02T06:18:09;13.80;;;8.90;;
75550;SDS011;64135;53.130;17.972;2022-11-02T06:20:36;16.30;;;9.80;;
75550;SDS011;64135;53.130;17.972;2022-11-02T06:23:02;20.00;;;10.00;;
75550;SDS011;64135;53.130;17.972;2022-11-02T06:25:29;15.90;;;10.00;;
75550;SDS011;64135;53.130;17.972;2022-11-02T06:27:55;13.40;;;9.50;;
75550;SDS011;64135;53.130;17.972;2022-11-02T06:30:23;13.30;;;8.60;;
75550;SDS011;64135;53.130;17.972;2022-11-02T06:32:51;14.00;;;9.30;;
75550;SDS011;64135;53.130;17.972;2022-11-02T06:35:20;16.40;;;9.20;;
75550;SDS011;64135;53.130;17.972;2022-11-02T06:37:47;17.20;;;10.10;;
75550;SDS011;64135;53.130;17.972;2022-11-02T06:40:14;15.50;;;9.70;;
75550;SDS011;64135;53.130;17.972;2022-11-02T06:42:41;17.30;;;9.40;;
75550;SDS011;64135;53.130;17.972;2022-11-02T06:45:07;16.10;;;9.40;;
75550;SDS011;64135;53.130;17.972;2022-11-02T06:47:35;11.80;;;7.10;;
75550;SDS011;64135;53.130;17.972;2022-11-02T06:50:03;10.10;;;7.30;;
75550;SDS011;64135;53.130;17.972;2022-11-02T06:52:31;12.20;;;8.10;;
75550;SDS011;64135;53.130;17.972;2022-11-02T06:54:58;16.90;;;9.20;;
75550;SDS011;64135;53.130;17.972;2022-11-02T06:57:25;12.00;;;7.90;;
75550;SDS011;64135;53.130;17.972;2022-11-02T06:59:51;11.20;;;8.30;;
75550;SDS011;64135;53.130;17.972;2022-11-02T07:02:18;13.20;;;8.00;;
75550;SDS011;64135;53.130;17.972;2022-11-02T07:04:47;13.80;;;8.90;;
75550;SDS011;64135;53.130;17.972;2022-11-02T07:07:14;15.50;;;9.70;;
75550;SDS011;64135;53.130;17.972;2022-11-02T07:09:41;12.60;;;8.00;;
75550;SDS011;64135;53.130;17.972;2022-11-02T07:12:07;17.20;;;10.30;;
75550;SDS011;64135;53.130;17.972;2022-11-02T07:14:34;14.50;;;10.30;;
75550;SDS011;64135;53.130;17.972;2022-11-02T07:17:01;11.70;;;7.70;;
75550;SDS011;64135;53.130;17.972;2022-11-02T07:19:27;9.60;;;7.00;;
75550;SDS011;64135;53.130;17.972;2022-11-02T07:21:54;17.50;;;9.70;;
75550;SDS011;64135;53.130;17.972;2022-11-02T07:24:20;12.30;;;8.80;;
75550;SDS011;64135;53.130;17.972;2022-11-02T07:26:47;11.50;;;7.80;;
75550;SDS011;64135;53.130;17.972;2022-11-02T07:29:17;12.80;;;8.70;;
75550;SDS011;64135;53.130;17.972;2022-11-02T07:31:44;11.40;;;8.30;;
75550;SDS011;64135;53.130;17.972;2022-11-02T07:34:11;14.80;;;8.70;;
75550;SDS011;64135;53.130;17.972;2022-11-02T07:36:38;14.80;;;9.10;;
75550;SDS011;64135;53.130;17.972;2022-11-02T07:39:05;12.20;;;7.70;;
75550;SDS011;64135;53.130;17.972;2022-11-02T07:41:33;10.70;;;7.10;;
75550;SDS011;64135;53.130;17.972;2022-11-02T07:44:00;11.10;;;6.80;;
75550;SDS011;64135;53.130;17.972;2022-11-02T07:46:35;9.00;;;6.40;;
75550;SDS011;64135;53.130;17.972;2022-11-02T07:49:01;12.50;;;8.00;;
75550;SDS011;64135;53.130;17.972;2022-11-02T07:51:28;10.50;;;7.20;;
75550;SDS011;64135;53.130;17.972;2022-11-02T07:53:55;9.80;;;6.70;;
75550;SDS011;64135;53.130;17.972;2022-11-02T07:56:21;12.70;;;8.30;;
75550;SDS011;64135;53.130;17.972;2022-11-02T07:58:48;9.70;;;6.70;;
75550;SDS011;64135;53.130;17.972;2022-11-02T08:01:14;9.60;;;6.70;;
75550;SDS011;64135;53.130;17.972;2022-11-02T08:03:41;10.70;;;7.60;;
75550;SDS011;64135;53.130;17.972;2022-11-02T08:06:08;11.00;;;6.60;;
75550;SDS011;64135;53.130;17.972;2022-11-02T08:08:35;10.10;;;7.20;;
75550;SDS011;64135;53.130;17.972;2022-11-02T08:11:05;11.70;;;7.40;;
75550;SDS011;64135;53.130;17.972;2022-11-02T08:13:33;12.10;;;7.90;;
75550;SDS011;64135;53.130;17.972;2022-11-02T08:16:00;8.00;;;5.70;;
75550;SDS011;64135;53.130;17.972;2022-11-02T08:21:13;10.10;;;6.80;;
75550;SDS011;64135;53.130;17.972;2022-11-02T08:23:40;11.00;;;7.20;;
75550;SDS011;64135;53.130;17.972;2022-11-02T08:26:07;8.70;;;5.50;;
75550;SDS011;64135;53.130;17.972;2022-11-02T08:28:33;10.60;;;6.90;;
75550;SDS011;64135;53.130;17.972;2022-11-02T08:31:01;11.30;;;6.80;;
75550;SDS011;64135;53.130;17.972;2022-11-02T08:33:28;9.50;;;5.90;;
75550;SDS011;64135;53.130;17.972;2022-11-02T08:35:59;8.80;;;6.00;;
75550;SDS011;64135;53.130;17.972;2022-11-02T08:38:27;10.40;;;7.30;;
75550;SDS011;64135;53.130;17.972;2022-11-02T08:40:54;9.20;;;6.10;;
75550;SDS011;64135;53.130;17.972;2022-11-02T08:43:21;13.00;;;8.20;;
75550;SDS011;64135;53.130;17.972;2022-11-02T08:45:48;11.00;;;6.90;;
75550;SDS011;64135;53.130;17.972;2022-11-02T08:48:15;14.00;;;8.70;;
75550;SDS011;64135;53.130;17.972;2022-11-02T08:50:41;11.70;;;7.40;;
75550;SDS011;64135;53.130;17.972;2022-11-02T08:53:08;15.50;;;8.60;;
75550;SDS011;64135;53.130;17.972;2022-11-02T08:55:35;11.20;;;5.60;;
75550;SDS011;64135;53.130;17.972;2022-11-02T08:58:01;17.30;;;9.80;;
75550;SDS011;64135;53.130;17.972;2022-11-02T09:00:29;11.00;;;7.10;;
75550;SDS011;64135;53.130;17.972;2022-11-02T09:05:24;16.70;;;10.20;;
75550;SDS011;64135;53.130;17.972;2022-11-02T09:07:54;13.30;;;8.00;;
75550;SDS011;64135;53.130;17.972;2022-11-02T09:10:26;12.00;;;7.50;;
75550;SDS011;64135;53.130;17.972;2022-11-02T09:12:53;17.90;;;10.20;;
75550;SDS011;64135;53.130;17.972;2022-11-02T09:15:20;15.10;;;9.20;;
75550;SDS011;64135;53.130;17.972;2022-11-02T09:17:48;14.20;;;8.80;;
75550;SDS011;64135;53.130;17.972;2022-11-02T09:20:17;16.80;;;9.60;;
75550;SDS011;64135;53.130;17.972;2022-11-02T09:22:44;18.90;;;10.40;;
75550;SDS011;64135;53.130;17.972;2022-11-02T09:25:12;15.00;;;9.50;;
75550;SDS011;64135;53.130;17.972;2022-11-02T09:27:39;15.80;;;10.10;;
75550;SDS011;64135;53.130;17.972;2022-11-02T09:30:07;13.90;;;8.80;;
75550;SDS011;64135;53.130;17.972;2022-11-02T09:32:34;12.10;;;8.00;;
75550;SDS011;64135;53.130;17.972;2022-11-02T09:35:03;14.80;;;8.20;;
75550;SDS011;64135;53.130;17.972;2022-11-02T09:37:31;13.30;;;8.30;;
75550;SDS011;64135;53.130;17.972;2022-11-02T09:39:58;15.60;;;8.20;;
75550;SDS011;64135;53.130;17.972;2022-11-02T09:42:44;13.50;;;8.80;;
75550;SDS011;64135;53.130;17.972;2022-11-02T09:45:32;11.40;;;6.90;;
75550;SDS011;64135;53.130;17.972;2022-11-02T09:48:04;12.10;;;8.40;;
75550;SDS011;64135;53.130;17.972;2022-11-02T09:51:17;12.40;;;8.10;;
75550;SDS011;64135;53.130;17.972;2022-11-02T09:53:42;11.50;;;8.70;;
75550;SDS011;64135;53.130;17.972;2022-11-02T09:56:11;11.90;;;7.50;;
75550;SDS011;64135;53.130;17.972;2022-11-02T09:58:39;11.50;;;7.80;;
75550;SDS011;64135;53.130;17.972;2022-11-02T10:06:39;10.50;;;7.90;;
75550;SDS011;64135;53.130;17.972;2022-11-02T10:10:13;9.70;;;7.20;;
75550;SDS011;64135;53.130;17.972;2022-11-02T10:12:23;9.90;;;6.80;;
75550;SDS011;64135;53.130;17.972;2022-11-02T10:14:59;12.50;;;7.20;;
75550;SDS011;64135;53.130;17.972;2022-11-02T10:17:29;9.80;;;7.00;;
75550;SDS011;64135;53.130;17.972;2022-11-02T10:20:01;8.80;;;6.60;;
75550;SDS011;64135;53.130;17.972;2022-11-02T10:22:32;9.40;;;7.20;;
75550;SDS011;64135;53.130;17.972;2022-11-02T10:25:05;11.00;;;7.60;;
75550;SDS011;64135;53.130;17.972;2022-11-02T10:27:36;10.00;;;7.10;;
75550;SDS011;64135;53.130;17.972;2022-11-02T10:32:34;11.90;;;7.60;;
75550;SDS011;64135;53.130;17.972;2022-11-02T10:37:42;7.80;;;6.00;;
75550;SDS011;64135;53.130;17.972;2022-11-02T10:51:29;9.60;;;7.40;;
75550;SDS011;64135;53.130;17.972;2022-11-02T10:53:56;7.80;;;6.00;;
75550;SDS011;64135;53.130;17.972;2022-11-02T10:56:24;9.10;;;6.00;;
75550;SDS011;64135;53.130;17.972;2022-11-02T11:01:26;8.30;;;5.70;;
75550;SDS011;64135;53.130;17.972;2022-11-02T11:04:04;8.90;;;7.10;;
75550;SDS011;64135;53.130;17.972;2022-11-02T11:06:35;8.00;;;6.10;;
75550;SDS011;64135;53.130;17.972;2022-11-02T11:14:27;7.40;;;5.80;;
75550;SDS011;64135;53.130;17.972;2022-11-02T11:16:56;6.70;;;5.70;;
75550;SDS011;64135;53.130;17.972;2022-11-02T11:19:34;5.90;;;5.30;;
75550;SDS011;64135;53.130;17.972;2022-11-02T11:27:57;6.90;;;5.50;;
75550;SDS011;64135;53.130;17.972;2022-11-02T11:30:27;6.80;;;4.80;;
75550;SDS011;64135;53.130;17.972;2022-11-02T11:32:55;7.70;;;5.40;;
75550;SDS011;64135;53.130;17.972;2022-11-02T11:35:24;6.30;;;5.10;;
75550;SDS011;64135;53.130;17.972;2022-11-02T11:38:01;6.60;;;4.90;;
75550;SDS011;64135;53.130;17.972;2022-11-02T11:40:36;5.70;;;4.80;;
75550;SDS011;64135;53.130;17.972;2022-11-02T11:43:07;6.10;;;5.50;;
75550;SDS011;64135;53.130;17.972;2022-11-02T11:45:35;5.50;;;4.90;;
75550;SDS011;64135;53.130;17.972;2022-11-02T11:48:21;4.80;;;4.10;;
75550;SDS011;64135;53.130;17.972;2022-11-02T11:50:56;6.60;;;4.50;;
75550;SDS011;64135;53.130;17.972;2022-11-02T11:53:24;5.50;;;4.30;;
75550;SDS011;64135;53.130;17.972;2022-11-02T11:55:52;6.60;;;4.50;;
75550;SDS011;64135;53.130;17.972;2022-11-02T11:58:21;6.30;;;4.70;;
75550;SDS011;64135;53.130;17.972;2022-11-02T12:03:50;5.10;;;4.50;;
75550;SDS011;64135;53.130;17.972;2022-11-02T12:06:22;6.60;;;4.60;;
75550;SDS011;64135;53.130;17.972;2022-11-02T12:09:06;4.60;;;4.20;;
75550;SDS011;64135;53.130;17.972;2022-11-02T12:11:44;5.10;;;4.00;;
75550;SDS011;64135;53.130;17.972;2022-11-02T12:17:36;5.40;;;4.50;;
75550;SDS011;64135;53.130;17.972;2022-11-02T12:29:00;4.30;;;3.90;;
75550;SDS011;64135;53.130;17.972;2022-11-02T12:45:45;8.40;;;4.90;;
75550;SDS011;64135;53.130;17.972;2022-11-02T12:48:18;9.20;;;5.30;;
75550;SDS011;64135;53.130;17.972;2022-11-02T12:50:59;9.20;;;4.10;;
75550;SDS011;64135;53.130;17.972;2022-11-02T12:56:52;5.70;;;3.40;;
75550;SDS011;64135;53.130;17.972;2022-11-02T12:59:14;9.00;;;3.80;;
75550;SDS011;64135;53.130;17.972;2022-11-02T13:01:48;6.10;;;3.30;;
75550;SDS011;64135;53.130;17.972;2022-11-02T13:04:21;6.60;;;3.40;;
75550;SDS011;64135;53.130;17.972;2022-11-02T13:06:50;7.90;;;3.20;;
75550;SDS011;64135;53.130;17.972;2022-11-02T13:09:24;5.50;;;3.10;;
75550;SDS011;64135;53.130;17.972;2022-11-02T13:14:41;3.30;;;2.10;;
75550;SDS011;64135;53.130;17.972;2022-11-02T13:19:48;5.20;;;2.40;;
75550;SDS011;64135;53.130;17.972;2022-11-02T13:22:19;4.60;;;2.70;;
75550;SDS011;64135;53.130;17.972;2022-11-02T13:24:49;5.70;;;2.70;;
75550;SDS011;64135;53.130;17.972;2022-11-02T13:27:24;5.60;;;2.60;;
75550;SDS011;64135;53.130;17.972;2022-11-02T13:30:01;5.80;;;3.50;;
75550;SDS011;64135;53.130;17.972;2022-11-02T13:35:21;5.20;;;2.20;;
75550;SDS011;64135;53.130;17.972;2022-11-02T13:37:52;6.70;;;2.60;;
75550;SDS011;64135;53.130;17.972;2022-11-02T13:40:25;7.30;;;2.20;;
75550;SDS011;64135;53.130;17.972;2022-11-02T13:42:59;3.10;;;1.70;;
75550;SDS011;64135;53.130;17.972;2022-11-02T13:50:46;4.90;;;1.80;;
75550;SDS011;64135;53.130;17.972;2022-11-02T13:53:20;5.60;;;2.40;;
75550;SDS011;64135;53.130;17.972;2022-11-02T13:55:59;5.30;;;2.00;;
75550;SDS011;64135;53.130;17.972;2022-11-02T13:58:31;6.20;;;2.80;;
75550;SDS011;64135;53.130;17.972;2022-11-02T14:01:02;6.60;;;2.40;;
75550;SDS011;64135;53.130;17.972;2022-11-02T14:06:19;6.60;;;3.40;;
75550;SDS011;64135;53.130;17.972;2022-11-02T14:08:47;9.10;;;3.90;;
75550;SDS011;64135;53.130;17.972;2022-11-02T14:32:04;8.80;;;6.00;;
75550;SDS011;64135;53.130;17.972;2022-11-02T14:35:01;8.40;;;4.40;;
75550;SDS011;64135;53.130;17.972;2022-11-02T14:43:15;2.90;;;1.30;;
75550;SDS011;64135;53.130;17.972;2022-11-02T14:48:42;3.50;;;1.70;;
75550;SDS011;64135;53.130;17.972;2022-11-02T14:51:15;3.70;;;1.50;;
75550;SDS011;64135;53.130;17.972;2022-11-02T14:53:46;4.80;;;1.70;;
75550;SDS011;64135;53.130;17.972;2022-11-02T14:56:15;6.00;;;1.80;;
75550;SDS011;64135;53.130;17.972;2022-11-02T14:58:47;5.40;;;2.40;;
75550;SDS011;64135;53.130;17.972;2022-11-02T15:01:16;3.10;;;1.70;;
75550;SDS011;64135;53.130;17.972;2022-11-02T15:03:43;6.80;;;2.70;;
75550;SDS011;64135;53.130;17.972;2022-11-02T15:06:23;8.10;;;2.60;;
75550;SDS011;64135;53.130;17.972;2022-11-02T15:08:53;6.10;;;2.30;;
75550;SDS011;64135;53.130;17.972;2022-11-02T15:16:56;3.80;;;1.80;;
75550;SDS011;64135;53.130;17.972;2022-11-02T15:19:35;4.60;;;1.70;;
75550;SDS011;64135;53.130;17.972;2022-11-02T15:24:54;6.00;;;1.70;;
75550;SDS011;64135;53.130;17.972;2022-11-02T15:27:23;5.90;;;1.70;;
75550;SDS011;64135;53.130;17.972;2022-11-02T15:29:50;5.20;;;2.00;;
75550;SDS011;64135;53.130;17.972;2022-11-02T15:32:19;4.00;;;1.70;;
75550;SDS011;64135;53.130;17.972;2022-11-02T15:34:48;5.00;;;1.50;;
75550;SDS011;64135;53.130;17.972;2022-11-02T15:37:26;5.00;;;1.90;;
75550;SDS011;64135;53.130;17.972;2022-11-02T15:39:56;4.80;;;1.90;;
75550;SDS011;64135;53.130;17.972;2022-11-02T15:53:01;6.00;;;2.70;;
75550;SDS011;64135;53.130;17.972;2022-11-02T16:03:53;6.60;;;2.20;;
75550;SDS011;64135;53.130;17.972;2022-11-02T16:06:24;5.00;;;2.00;;
75550;SDS011;64135;53.130;17.972;2022-11-02T16:08:54;6.30;;;2.50;;
75550;SDS011;64135;53.130;17.972;2022-11-02T16:11:23;4.00;;;1.70;;
75550;SDS011;64135;53.130;17.972;2022-11-02T16:13:50;4.10;;;1.80;;
75550;SDS011;64135;53.130;17.972;2022-11-02T16:16:19;5.80;;;1.80;;
75550;SDS011;64135;53.130;17.972;2022-11-02T16:18:48;7.00;;;1.80;;
75550;SDS011;64135;53.130;17.972;2022-11-02T16:21:22;7.20;;;3.20;;
75550;SDS011;64135;53.130;17.972;2022-11-02T16:23:51;7.70;;;1.90;;
75550;SDS011;64135;53.130;17.972;2022-11-02T16:26:20;7.90;;;1.70;;
75550;SDS011;64135;53.130;17.972;2022-11-02T16:28:50;5.40;;;1.70;;
75550;SDS011;64135;53.130;17.972;2022-11-02T16:31:22;4.30;;;1.50;;
75550;SDS011;64135;53.130;17.972;2022-11-02T16:36:27;5.10;;;1.80;;
75550;SDS011;64135;53.130;17.972;2022-11-02T16:41:24;6.20;;;1.80;;
75550;SDS011;64135;53.130;17.972;2022-11-02T16:43:52;4.00;;;1.80;;
75550;SDS011;64135;53.130;17.972;2022-11-02T16:46:27;6.80;;;1.70;;
75550;SDS011;64135;53.130;17.972;2022-11-02T16:49:11;6.50;;;1.60;;
75550;SDS011;64135;53.130;17.972;2022-11-02T16:51:38;5.40;;;1.80;;
75550;SDS011;64135;53.130;17.972;2022-11-02T16:54:27;4.10;;;1.90;;
75550;SDS011;64135;53.130;17.972;2022-11-02T16:59:58;5.60;;;1.80;;
75550;SDS011;64135;53.130;17.972;2022-11-02T17:04:57;4.80;;;1.70;;
75550;SDS011;64135;53.130;17.972;2022-11-02T17:07:46;4.40;;;1.80;;
75550;SDS011;64135;53.130;17.972;2022-11-02T17:10:24;3.60;;;2.00;;
75550;SDS011;64135;53.130;17.972;2022-11-02T17:12:52;5.60;;;1.80;;
75550;SDS011;64135;53.130;17.972;2022-11-02T17:15:21;3.60;;;1.30;;
75550;SDS011;64135;53.130;17.972;2022-11-02T17:17:49;6.10;;;1.90;;
75550;SDS011;64135;53.130;17.972;2022-11-02T17:20:20;4.00;;;1.90;;
75550;SDS011;64135;53.130;17.972;2022-11-02T17:25:21;5.00;;;1.50;;
75550;SDS011;64135;53.130;17.972;2022-11-02T17:27:49;5.00;;;1.50;;
75550;SDS011;64135;53.130;17.972;2022-11-02T17:32:55;5.50;;;1.60;;
75550;SDS011;64135;53.130;17.972;2022-11-02T17:35:23;4.00;;;2.20;;
75550;SDS011;64135;53.130;17.972;2022-11-02T17:37:50;5.80;;;1.60;;
75550;SDS011;64135;53.130;17.972;2022-11-02T17:40:18;5.20;;;1.70;;
75550;SDS011;64135;53.130;17.972;2022-11-02T17:42:45;4.10;;;1.70;;
75550;SDS011;64135;53.130;17.972;2022-11-02T17:47:52;6.30;;;1.90;;
75550;SDS011;64135;53.130;17.972;2022-11-02T17:50:20;7.60;;;2.50;;
75550;SDS011;64135;53.130;17.972;2022-11-02T17:52:46;6.70;;;2.00;;
75550;SDS011;64135;53.130;17.972;2022-11-02T17:55:15;4.10;;;1.80;;
75550;SDS011;64135;53.130;17.972;2022-11-02T17:57:45;4.50;;;1.60;;